Time;durP1;ratioP1;P1;durP2;ratioP2;P2;SDS_P1;SDS_P2;PMS_P1;PMS_P2;Temp;Humidity;BMP_temperature;BMP_pressure;BME280_temperature;BME280_humidity;BME280_pressure;Samples;Min_cycle;Max_cycle;Signal;HPM_P1;HPM_P2
2021/05/08 00:03:11;;;;;;;;;;;3.80;99.90;;;2.60;91.29;96085.97;10404152;28;1846;-85
2021/05/08 00:08:13;;;;;;;;;;;5.50;99.90;;;2.59;92.01;96081.69;10389802;28;1525;-85
2021/05/08 00:13:16;;;;;;;;;;;4.90;99.90;;;2.59;91.80;96084.34;10378461;28;1959;-88
2021/05/08 00:18:20;;;;;;;;;;;5.70;99.90;;;2.58;91.66;96085.38;10401929;28;1968;-84
2021/05/08 00:23:23;;;;;;;;;;;5.10;99.90;;;2.50;92.31;96077.69;10365872;28;2083;-85
2021/05/08 00:28:26;;;;;;;;;;;3.80;99.90;;;2.42;92.53;96083.25;10368672;28;2289;-85
2021/05/08 00:33:28;;;;;;;;;;;4.90;99.90;;;2.38;92.74;96087.34;10369451;28;2045;-83
2021/05/08 00:38:32;;;;;;;;;;;3.60;99.90;;;2.33;92.72;96082.69;10375416;28;2136;-83
2021/05/08 00:43:35;;;;;;;;;;;4.00;99.90;;;2.25;92.47;96077.66;10382423;28;1715;-85
2021/05/08 00:48:38;;;;;;;;;;;5.20;99.90;;;2.21;92.93;96071.13;10379182;28;2097;-85
2021/05/08 00:53:42;;;;;;;;;;;3.80;99.90;;;2.13;92.69;96074.84;10374047;28;2211;-85
2021/05/08 00:58:45;;;;;;;;;;;3.30;99.90;;;2.07;92.78;96073.06;10395227;28;2105;-82
2021/05/08 01:03:49;;;;;;;;;;;3.80;99.90;;;2.02;93.09;96072.06;10389032;28;2264;-84
2021/05/08 01:08:57;;;;;;;;;;;3.60;99.90;;;2.03;94.05;96073.69;10386074;28;2221;-84
2021/05/08 01:14:03;;;;;;;;;;;4.40;99.90;;;2.02;94.13;96072.06;10392558;28;1719;-85
2021/05/08 01:19:05;;;;;;;;;;;4.70;99.90;;;2.01;94.31;96071.25;10366796;28;2187;-86
2021/05/08 01:24:08;;;;;;;;;;;3.70;99.90;;;2.09;94.46;96063.03;10396896;28;1688;-85
2021/05/08 01:29:11;;;;;;;;;;;4.90;99.90;;;2.24;94.76;96075.22;10373764;28;1344;-85
2021/05/08 01:34:16;;;;;;;;;;;3.60;99.90;;;2.28;94.21;96076.41;10369809;28;2231;-87
2021/05/08 01:39:19;;;;;;;;;;;3.40;99.90;;;2.27;94.05;96069.47;10375010;28;2513;-84
2021/05/08 01:44:22;;;;;;;;;;;3.40;99.90;;;2.24;93.35;96069.91;10388085;28;1687;-85
2021/05/08 02:06:54;;;;;;;;;;;4.80;99.90;;;2.11;93.76;96063.66;10391520;28;1632;-86
2021/05/08 02:11:58;;;;;;;;;;;3.40;99.90;;;2.13;93.53;96066.91;10406822;28;1978;-86
2021/05/08 02:17:00;;;;;;;;;;;4.40;99.90;;;2.20;93.42;96068.69;10389815;28;2073;-88
2021/05/08 02:22:02;;;;;;;;;;;5.10;99.90;;;2.40;92.69;96058.78;10402946;28;1769;-86
2021/05/08 02:27:04;;;;;;;;;;;3.50;99.90;;;2.39;92.43;96051.84;10356577;28;1792;-85
2021/05/08 02:32:06;;;;;;;;;;;3.70;99.90;;;2.64;91.08;96054.50;10377404;28;1761;-84
2021/05/08 02:37:09;;;;;;;;;;;5.60;99.90;;;2.63;91.34;96058.19;10347631;28;2039;-86
2021/05/08 02:42:11;;;;;;;;;;;4.20;99.90;;;2.69;89.57;96052.84;10392625;28;2077;-84
2021/05/08 02:47:18;;;;;;;;;;;5.60;99.90;;;2.68;89.64;96051.22;10366381;28;1923;-87
2021/05/08 02:52:22;;;;;;;;;;;5.50;99.90;;;2.64;89.31;96054.50;10364514;28;2119;-85
2021/05/08 02:57:25;;;;;;;;;;;5.00;99.90;;;2.70;89.10;96043.84;10359544;28;2211;-83
2021/05/08 03:02:28;;;;;;;;;;;3.80;99.90;;;2.68;89.24;96037.13;10353705;28;1954;-83
2021/05/08 03:07:33;;;;;;;;;;;3.80;99.90;;;2.60;89.22;96035.53;10355660;28;1947;-83
2021/05/08 03:12:35;;;;;;;;;;;5.30;99.90;;;2.44;89.58;96023.63;10362468;28;1624;-84
2021/05/08 03:17:38;;;;;;;;;;;3.90;99.90;;;2.43;89.52;96019.38;10357254;28;2147;-85
2021/05/08 03:22:41;;;;;;;;;;;5.60;99.90;;;2.40;89.72;96021.63;10365920;28;2132;-84
2021/05/08 03:27:43;;;;;;;;;;;3.70;99.90;;;2.23;90.12;96007.25;10361368;28;2052;-84
2021/05/08 03:32:47;;;;;;;;;;;4.80;99.90;;;2.13;89.61;96016.50;10378622;28;1288;-86
2021/05/08 03:37:49;;;;;;;;;;;3.40;99.90;;;2.15;90.52;96017.09;10379554;28;2067;-86
2021/05/08 03:42:52;;;;;;;;;;;3.20;99.90;;;2.11;90.50;96010.63;10388245;28;1264;-82
2021/05/08 03:47:54;;;;;;;;;;;3.80;99.90;;;2.14;90.65;96019.97;10350476;28;2175;-83
2021/05/08 03:52:56;;;;;;;;;;;3.80;99.90;;;2.08;90.46;96008.38;10351755;28;2210;-84
2021/05/08 03:57:59;;;;;;;;;;;4.00;99.90;;;2.14;90.60;96012.03;10364186;28;1914;-84
2021/05/08 04:03:01;;;;;;;;;;;3.60;99.90;;;2.16;91.20;96010.81;10363792;28;2221;-84
2021/05/08 04:08:04;;;;;;;;;;;3.70;99.90;;;2.36;90.86;96009.84;10355173;28;1710;-83
2021/05/08 04:13:08;;;;;;;;;;;5.90;99.90;;;2.68;88.90;96019.38;10367393;28;1723;-86
2021/05/08 04:18:13;;;;;;;;;;;3.60;99.90;;;3.00;87.37;96015.81;10359527;28;1891;-84
2021/05/08 04:23:16;;;;;;;;;;;5.30;99.90;;;3.33;85.48;96020.75;10367032;28;2144;-86
2021/05/08 04:28:19;;;;;;;;;;;5.40;99.90;;;3.74;84.06;96028.81;10353621;28;2132;-84
2021/05/08 04:33:21;;;;;;;;;;;4.40;99.90;;;4.18;81.94;96026.78;10359735;28;2217;-82
2021/05/08 04:38:24;;;;;;;;;;;5.00;99.90;;;4.61;79.89;96028.41;10348753;28;2258;-85
2021/05/08 04:43:30;;;;;;;;;;;6.60;99.90;;;5.15;77.42;96037.09;10353019;28;2362;-85
2021/05/08 04:48:33;;;;;;;;;;;6.10;99.90;;;5.26;75.97;96041.63;10366225;28;2394;-85
2021/05/08 04:53:36;;;;;;;;;;;6.90;99.90;;;5.40;75.31;96032.31;10365443;28;2501;-86
2021/05/08 04:58:39;;;;;;;;;;;6.30;99.90;;;5.58;74.68;96031.34;10360322;28;2513;-86
2021/05/08 05:03:42;;;;;;;;;;;7.70;99.90;;;6.14;72.30;96032.47;10345931;28;2493;-86
2021/05/08 05:08:45;;;;;;;;;;;6.90;99.90;;;6.30;71.18;96033.59;10354372;28;2248;-86
2021/05/08 05:13:47;;;;;;;;;;;8.60;99.90;;;6.33;69.88;96033.09;10355812;28;2586;-84
2021/05/08 05:18:50;;;;;;;;;;;7.90;99.90;;;6.41;70.69;96030.03;10387237;28;1903;-86
2021/05/08 05:23:53;;;;;;;;;;;8.70;99.90;;;6.79;68.38;96033.84;10353084;28;2079;-84
2021/05/08 05:28:55;;;;;;;;;;;7.70;99.90;;;7.25;67.01;96029.19;10375673;28;2264;-87
2021/05/08 05:33:57;;;;;;;;;;;8.00;99.90;;;7.42;66.67;96032.66;10370689;28;2016;-83
2021/05/08 05:39:01;;;;;;;;;;;8.70;99.90;;;7.66;66.05;96029.75;10345713;28;2210;-83
2021/05/08 05:44:07;;;;;;;;;;;9.70;99.90;;;8.06;64.21;96037.44;10373852;28;2152;-86
2021/05/08 05:49:09;;;;;;;;;;;9.90;99.90;;;8.22;62.75;96028.53;10374265;28;2172;-86
2021/05/08 05:54:12;;;;;;;;;;;9.10;99.90;;;8.64;62.21;96023.31;10353861;28;1886;-87
2021/05/08 05:59:14;;;;;;;;;;;9.40;99.90;;;8.98;61.19;96022.25;10361460;28;1985;-84
2021/05/08 06:04:17;;;;;;;;;;;9.80;99.90;;;9.08;59.94;96016.94;10375402;28;2080;-86
2021/05/08 06:09:19;;;;;;;;;;;10.90;99.90;;;9.16;60.57;96009.25;10388663;28;2119;-82
2021/05/08 06:14:21;;;;;;;;;;;10.30;99.90;;;9.13;59.14;96004.38;10375103;28;2051;-85
2021/05/08 06:19:23;;;;;;;;;;;10.30;99.90;;;9.41;59.75;96010.44;10352474;28;2126;-85
2021/05/08 06:24:25;;;;;;;;;;;10.40;99.90;;;8.87;59.20;96010.63;10346563;28;2067;-85
2021/05/08 06:29:27;;;;;;;;;;;10.50;99.90;;;9.07;59.21;96002.72;10353049;28;2242;-85
2021/05/08 06:34:29;;;;;;;;;;;10.30;99.90;;;9.29;58.34;95999.94;10367847;28;2028;-86
2021/05/08 06:39:31;;;;;;;;;;;10.40;99.90;;;9.92;56.03;95999.94;10361887;28;2143;-87
2021/05/08 06:44:34;;;;;;;;;;;10.80;99.90;;;9.93;55.32;96010.44;10361297;28;1575;-84
2021/05/08 06:49:36;;;;;;;;;;;11.10;99.90;;;10.48;54.71;96002.78;10365874;28;2116;-87
2021/05/08 06:54:38;;;;;;;;;;;11.50;99.90;;;10.23;54.77;95998.97;10368834;28;2066;-82
2021/05/08 06:59:40;;;;;;;;;;;11.40;99.90;;;10.71;53.82;95996.91;10373751;28;2095;-83
2021/05/08 07:04:42;;;;;;;;;;;11.70;99.90;;;10.81;53.20;95999.59;10377221;28;1999;-81
2021/05/08 07:09:44;;;;;;;;;;;11.90;99.90;;;11.00;50.41;95997.13;10367666;28;2159;-83
2021/05/08 07:14:46;;;;;;;;;;;12.20;99.90;;;11.05;51.58;95993.66;10358041;28;2180;-83
2021/05/08 07:19:48;;;;;;;;;;;12.30;99.90;;;11.57;51.13;95989.75;10371589;28;2073;-80
2021/05/08 07:24:49;;;;;;;;;;;12.60;99.90;;;11.64;46.37;95990.28;10385058;28;1840;-81
2021/05/08 07:29:51;;;;;;;;;;;12.80;99.90;;;11.77;47.40;95986.19;10393638;28;2040;-84
2021/05/08 07:34:53;;;;;;;;;;;12.90;98.60;;;11.69;45.82;95984.88;10390943;28;1987;-81
2021/05/08 07:39:55;;;;;;;;;;;13.10;94.30;;;11.64;46.01;95976.81;10349030;28;2121;-83
2021/05/08 07:44:57;;;;;;;;;;;12.80;94.20;;;11.73;45.08;95959.00;10354858;28;1905;-81
2021/05/08 07:49:58;;;;;;;;;;;13.00;91.50;;;12.55;43.53;95961.28;10357414;28;2071;-83
2021/05/08 07:55:00;;;;;;;;;;;13.40;90.90;;;12.64;44.35;95967.66;10371642;28;1970;-83
2021/05/08 08:00:02;;;;;;;;;;;13.70;90.10;;;12.97;43.36;95966.81;10370706;28;2053;-82
2021/05/08 08:05:04;;;;;;;;;;;14.00;89.10;;;12.77;40.52;95961.63;10370218;28;1787;-84
2021/05/08 08:10:06;;;;;;;;;;;14.10;83.30;;;12.35;43.25;95956.84;10382289;28;2125;-84
2021/05/08 08:15:08;;;;;;;;;;;13.80;84.20;;;12.59;45.03;95960.41;10380512;28;1978;-82
2021/05/08 08:20:10;;;;;;;;;;;13.60;85.80;;;12.89;40.96;95967.44;10386356;28;2068;-85
2021/05/08 08:25:12;;;;;;;;;;;14.00;82.10;;;12.58;40.78;95964.19;10352028;28;1974;-83
2021/05/08 08:30:14;;;;;;;;;;;14.00;79.40;;;12.40;41.12;95972.94;10373701;28;2240;-84
2021/05/08 08:35:15;;;;;;;;;;;13.90;78.60;;;13.19;40.20;95971.78;10362628;28;2013;-83
2021/05/08 08:40:17;;;;;;;;;;;14.20;79.10;;;13.30;40.22;95972.50;10363341;28;1987;-82
2021/05/08 08:45:19;;;;;;;;;;;14.40;77.90;;;13.46;38.69;95967.75;10344771;28;1970;-85
2021/05/08 08:50:21;;;;;;;;;;;14.70;76.00;;;13.14;38.05;95963.72;10380025;28;2346;-83
2021/05/08 08:55:23;;;;;;;;;;;14.60;74.00;;;12.85;39.47;95958.34;10365012;28;2073;-82
2021/05/08 09:00:26;;;;;;;;;;;14.30;74.20;;;13.12;38.15;95954.31;10370785;28;2065;-85
2021/05/08 09:05:27;;;;;;;;;;;14.30;73.90;;;13.03;40.16;95954.09;10369153;28;2120;-83
2021/05/08 09:10:30;;;;;;;;;;;14.30;74.10;;;13.30;38.03;95948.22;10373048;28;2084;-83
2021/05/08 09:15:32;;;;;;;;;;;14.40;72.90;;;13.41;37.17;95938.88;10374284;28;1974;-82
2021/05/08 09:20:33;;;;;;;;;;;14.70;71.30;;;14.11;36.87;95942.88;10362309;28;2074;-84
2021/05/08 09:25:35;;;;;;;;;;;15.10;71.40;;;14.46;36.65;95936.16;10359554;28;2121;-84
2021/05/08 09:30:37;;;;;;;;;;;15.40;70.80;;;14.36;35.54;95937.13;10348734;28;2064;-83
2021/05/08 09:35:39;;;;;;;;;;;15.70;69.40;;;14.26;36.25;95931.88;10359960;28;2082;-82
2021/05/08 09:40:41;;;;;;;;;;;15.60;68.50;;;14.79;34.03;95926.19;10357359;28;1928;-82
2021/05/08 09:45:44;;;;;;;;;;;15.90;67.40;;;14.73;35.91;95919.25;10375410;28;1943;-86
2021/05/08 09:50:46;;;;;;;;;;;16.00;67.50;;;15.30;34.44;95915.25;10382993;28;2063;-83
2021/05/08 09:55:48;;;;;;;;;;;16.20;66.70;;;15.78;33.04;95919.53;10356187;28;2171;-84
2021/05/08 10:00:51;;;;;;;;;;;16.80;65.30;;;16.28;34.16;95903.22;10370788;28;1753;-85
2021/05/08 10:05:53;;;;;;;;;;;17.10;66.10;;;15.84;31.96;95907.44;10374424;28;2097;-85
2021/05/08 10:10:54;;;;;;;;;;;17.10;62.40;;;15.54;33.49;95900.72;10390328;28;2099;-85
2021/05/08 10:15:56;;;;;;;;;;;16.90;63.10;;;15.08;34.04;95893.50;10376379;28;1981;-81
2021/05/08 10:20:58;;;;;;;;;;;16.40;63.30;;;15.06;33.62;95882.94;10398646;28;2152;-82
2021/05/08 10:26:00;;;;;;;;;;;16.10;63.40;;;15.46;34.10;95877.03;10399099;28;2128;-81
2021/05/08 10:31:02;;;;;;;;;;;16.30;64.10;;;16.02;32.21;95879.38;10400071;28;2149;-83
2021/05/08 10:36:04;;;;;;;;;;;16.90;62.80;;;16.36;32.14;95872.66;10380616;28;2133;-82
2021/05/08 10:41:10;;;;;;;;;;;17.00;62.20;;;16.89;30.54;95886.28;10388883;28;2241;-82
2021/05/08 10:46:12;;;;;;;;;;;17.60;60.60;;;17.27;29.68;95877.69;10367306;28;2161;-84
2021/05/08 10:51:14;;;;;;;;;;;18.00;59.10;;;17.80;28.60;95865.88;10370654;28;2069;-84
2021/05/08 10:56:16;;;;;;;;;;;18.50;58.00;;;18.12;28.78;95877.44;10365561;28;2112;-86
2021/05/08 11:01:18;;;;;;;;;;;18.80;57.90;;;18.32;26.88;95861.31;10372486;28;2030;-84
2021/05/08 11:06:20;;;;;;;;;;;19.50;55.30;;;19.01;26.07;95849.50;10359958;28;2307;-81
2021/05/08 11:11:23;;;;;;;;;;;20.00;54.30;;;18.27;26.33;95858.75;10356648;28;2151;-82
2021/05/08 11:16:26;;;;;;;;;;;20.00;51.80;;;18.11;27.54;95838.56;10361308;28;2179;-84
2021/05/08 11:21:29;;;;;;;;;;;19.80;52.80;;;18.27;26.12;95845.13;10372387;28;2140;-85
2021/05/08 11:26:33;;;;;;;;;;;20.00;51.60;;;18.08;26.79;95839.22;10362715;28;2134;-81
2021/05/08 11:31:35;;;;;;;;;;;19.80;51.60;;;17.60;28.05;95840.06;10378649;28;2053;-85
2021/05/08 11:36:37;;;;;;;;;;;19.30;52.40;;;16.01;27.48;95823.56;10369557;28;2018;-83
2021/05/08 11:41:39;;;;;;;;;;;18.10;50.50;;;16.05;29.09;95824.56;10372265;28;2114;-84
2021/05/08 11:46:40;;;;;;;;;;;17.20;53.00;;;15.97;30.31;95811.75;10366814;28;2146;-83
2021/05/08 11:51:42;;;;;;;;;;;17.00;54.30;;;16.19;28.25;95811.75;10374704;28;1904;-86
2021/05/08 11:56:46;;;;;;;;;;;17.10;53.50;;;16.16;29.54;95801.53;10380696;28;2121;-85
2021/05/08 12:02:02;;;;;;;;;;;17.20;53.90;;;16.72;28.46;95797.41;10377883;28;2061;-83
2021/05/08 12:07:04;;;;;;;;;;;17.60;53.70;;;16.40;28.94;95792.25;10400127;28;2128;-84
2021/05/08 12:12:06;;;;;;;;;;;17.70;53.20;;;16.77;29.61;95788.34;10372870;28;2120;-83
2021/05/08 12:17:10;;;;;;;;;;;17.70;54.20;;;17.01;28.77;95780.63;10395316;28;2034;-85
2021/05/08 12:22:12;;;;;;;;;;;17.90;53.70;;;17.28;28.73;95774.13;10381439;28;1965;-86
2021/05/08 12:27:14;;;;;;;;;;;18.20;53.90;;;17.78;27.35;95764.81;10388576;28;2112;-82
2021/05/08 12:32:16;;;;;;;;;;;18.70;52.70;;;17.50;27.63;95764.28;10392888;28;1958;-81
2021/05/08 12:37:18;;;;;;;;;;;18.80;51.80;;;17.09;27.57;95753.78;10393212;28;2053;-85
2021/05/08 12:42:20;;;;;;;;;;;18.40;51.70;;;17.34;29.19;95753.06;10381695;28;1884;-86
2021/05/08 12:47:23;;;;;;;;;;;18.40;53.40;;;17.68;27.95;95738.69;10415633;28;1807;-84
2021/05/08 12:52:27;;;;;;;;;;;18.70;52.50;;;17.83;27.63;95724.66;10381645;28;1709;-84
2021/05/08 12:57:29;;;;;;;;;;;18.90;52.30;;;18.08;28.40;95725.75;10373997;28;1981;-85
2021/05/08 13:02:32;;;;;;;;;;;19.10;52.90;;;18.06;27.80;95722.56;10389502;28;1962;-85
2021/05/08 13:07:35;;;;;;;;;;;19.30;51.70;;;18.29;27.74;95719.66;10399628;28;2091;-85
2021/05/08 13:12:37;;;;;;;;;;;19.50;51.90;;;18.25;27.33;95714.03;10396585;28;2108;-82
2021/05/08 13:17:39;;;;;;;;;;;19.40;51.30;;;18.81;27.32;95709.41;10379519;28;1886;-86
2021/05/08 13:22:42;;;;;;;;;;;19.70;51.60;;;19.47;26.80;95684.34;10353648;28;2177;-81
2021/05/08 13:27:44;;;;;;;;;;;20.10;51.50;;;19.98;24.84;95685.84;10363218;28;2188;-87
2021/05/08 13:32:46;;;;;;;;;;;20.60;49.70;;;20.50;24.96;95685.31;10365650;28;2148;-84
2021/05/08 13:37:48;;;;;;;;;;;21.10;49.70;;;19.98;24.25;95674.13;10375703;28;2177;-82
2021/05/08 13:42:51;;;;;;;;;;;21.10;48.10;;;19.55;25.21;95677.22;10372839;28;2216;-84
2021/05/08 13:47:53;;;;;;;;;;;20.90;47.80;;;19.45;24.93;95664.78;10366094;28;1902;-84
2021/05/08 13:52:55;;;;;;;;;;;20.70;48.00;;;19.87;24.62;95656.59;10374052;28;2133;-84
2021/05/08 13:57:57;;;;;;;;;;;20.80;48.00;;;19.61;24.63;95648.66;10363557;28;1943;-84
2021/05/08 14:02:59;;;;;;;;;;;20.60;47.40;;;19.86;24.22;95639.44;10356673;28;1812;-85
2021/05/08 14:08:01;;;;;;;;;;;20.80;47.20;;;20.46;23.79;95646.16;10357562;28;2073;-85
2021/05/08 14:13:03;;;;;;;;;;;21.20;47.30;;;20.88;23.35;95642.44;10367619;28;2347;-84
2021/05/08 14:18:05;;;;;;;;;;;21.60;46.80;;;21.20;23.30;95632.50;10354112;28;2101;-84
2021/05/08 14:23:07;;;;;;;;;;;22.00;46.40;;;21.74;21.88;95623.91;10358309;28;1911;-85
2021/05/08 14:28:09;;;;;;;;;;;22.60;44.90;;;21.76;22.14;95613.44;10365479;28;2100;-84
2021/05/08 14:33:11;;;;;;;;;;;22.80;44.60;;;21.49;21.72;95610.31;10371861;28;2204;-85
2021/05/08 14:38:13;;;;;;;;;;;22.70;43.80;;;21.20;22.68;95605.16;10348057;28;2212;-83
2021/05/08 14:43:15;;;;;;;;;;;22.30;44.90;;;21.56;22.32;95607.78;10371968;28;2372;-84
2021/05/08 14:48:16;;;;;;;;;;;22.20;44.90;;;21.71;21.10;95594.53;10360276;28;2022;-85
2021/05/08 14:53:19;;;;;;;;;;;22.60;43.50;;;21.50;21.20;95600.19;10379266;28;2235;-82
2021/05/08 14:58:20;;;;;;;;;;;22.60;43.00;;;21.06;22.69;95602.81;10363203;28;2136;-84
2021/05/08 15:03:22;;;;;;;;;;;22.10;44.10;;;21.24;22.00;95595.09;10368016;28;2209;-83
2021/05/08 15:08:28;;;;;;;;;;;21.90;44.30;;;21.17;22.42;95605.84;10392585;28;1996;-84
2021/05/08 15:13:32;;;;;;;;;;;22.00;44.40;;;21.55;21.94;95584.31;10359364;28;2181;-86
2021/05/08 15:18:34;;;;;;;;;;;22.10;44.10;;;21.86;21.07;95580.09;10369983;28;2256;-86
2021/05/08 15:23:36;;;;;;;;;;;22.50;43.60;;;21.29;22.45;95581.22;10374751;28;2232;-85
2021/05/08 15:28:38;;;;;;;;;;;22.20;43.90;;;21.55;20.98;95581.59;10359497;28;2119;-83
2021/05/08 15:33:40;;;;;;;;;;;22.20;42.90;;;21.77;20.95;95576.72;10371096;28;2159;-84
2021/05/08 15:38:42;;;;;;;;;;;22.50;42.70;;;20.68;22.02;95582.13;10362417;28;2097;-85
2021/05/08 15:43:44;;;;;;;;;;;22.00;42.70;;;21.10;21.93;95575.56;10394207;28;2076;-88
2021/05/08 15:48:46;;;;;;;;;;;21.70;43.50;;;21.15;21.56;95572.59;10361299;28;2030;-84
2021/05/08 15:53:48;;;;;;;;;;;21.90;43.10;;;21.00;21.81;95572.19;10355404;28;2110;-83
2021/05/08 15:58:49;;;;;;;;;;;21.80;43.10;;;20.38;26.38;95581.53;10375242;28;1970;-85
2021/05/08 16:03:51;;;;;;;;;;;21.40;47.00;;;19.29;28.65;95577.38;10372102;28;1855;-84
2021/05/08 16:08:53;;;;;;;;;;;20.80;48.90;;;18.54;30.08;95563.63;10356092;28;2144;-84
2021/05/08 16:13:55;;;;;;;;;;;20.00;50.60;;;17.97;31.86;95560.53;10366288;28;2117;-82
2021/05/08 16:18:57;;;;;;;;;;;19.30;52.20;;;17.49;31.84;95564.28;10377047;28;2113;-85
2021/05/08 16:23:59;;;;;;;;;;;18.80;52.60;;;17.47;31.90;95552.94;10365550;28;2036;-87
2021/05/08 16:29:01;;;;;;;;;;;18.50;53.40;;;17.42;32.33;95555.81;10372857;28;2186;-86
2021/05/08 16:34:03;;;;;;;;;;;18.40;53.60;;;17.09;33.12;95564.50;10359558;28;2164;-84
2021/05/08 16:39:06;;;;;;;;;;;18.20;54.10;;;16.70;33.10;95552.66;10379353;28;2180;-84
2021/05/08 16:44:07;;;;;;;;;;;17.90;54.00;;;16.49;34.11;95557.88;10386593;28;1973;-85
2021/05/08 16:49:09;;;;;;;;;;;17.70;55.10;;;16.46;34.38;95557.69;10369171;28;2104;-84
2021/05/08 16:54:11;;;;;;;;;;;17.50;56.00;;;16.19;35.47;95551.41;10361799;28;2141;-85
2021/05/08 16:59:13;;;;;;;;;;;17.30;56.70;;;15.95;36.52;95548.28;10380582;28;2310;-87
2021/05/08 17:04:15;;;;;;;;;;;17.10;57.70;;;15.83;37.64;95540.72;10388618;28;2505;-81
2021/05/08 17:09:17;;;;;;;;;;;16.90;58.90;;;15.67;38.43;95551.19;10357978;28;2263;-85
2021/05/08 17:14:19;;;;;;;;;;;16.80;59.80;;;15.56;39.71;95541.69;10353956;28;2420;-83
2021/05/08 17:19:21;;;;;;;;;;;16.70;61.10;;;15.51;40.24;95538.31;10383098;28;2422;-83
2021/05/08 17:24:23;;;;;;;;;;;16.60;61.80;;;15.56;40.78;95536.28;10371773;28;2222;-83
2021/05/08 17:29:26;;;;;;;;;;;16.50;62.70;;;15.54;41.17;95543.13;10380124;28;2130;-84
2021/05/08 17:34:28;;;;;;;;;;;16.50;63.30;;;15.46;42.74;95541.13;10358801;28;2106;-83
2021/05/08 17:39:30;;;;;;;;;;;16.50;64.90;;;15.30;43.65;95529.91;10355302;28;2233;-85
2021/05/08 17:44:32;;;;;;;;;;;16.30;66.00;;;15.05;44.95;95537.53;10373042;28;2050;-85
2021/05/08 17:49:34;;;;;;;;;;;16.20;66.90;;;14.85;45.81;95536.13;10370519;28;2187;-84
2021/05/08 17:54:36;;;;;;;;;;;16.00;68.00;;;14.75;46.19;95532.84;10365163;28;2074;-84
2021/05/08 17:59:38;;;;;;;;;;;15.80;68.60;;;14.66;46.90;95524.66;10366720;28;2123;-85
2021/05/08 18:04:40;;;;;;;;;;;15.70;69.60;;;14.44;47.98;95528.09;10374194;28;2156;-84
2021/05/08 18:09:42;;;;;;;;;;;15.60;70.80;;;14.37;48.79;95527.69;10359281;28;2199;-85
2021/05/08 18:14:43;;;;;;;;;;;15.40;71.80;;;14.27;49.69;95534.13;10378048;28;2049;-85
2021/05/08 18:19:45;;;;;;;;;;;15.30;72.40;;;14.18;49.77;95535.13;10349853;28;2134;-85
2021/05/08 18:24:47;;;;;;;;;;;15.30;73.40;;;14.04;50.64;95524.31;10352692;28;2142;-83
2021/05/08 18:29:49;;;;;;;;;;;15.20;73.70;;;13.83;51.56;95518.53;10379869;28;2206;-85
2021/05/08 18:34:51;;;;;;;;;;;15.00;74.90;;;13.62;52.26;95522.72;10351410;28;2089;-83
2021/05/08 18:39:53;;;;;;;;;;;14.80;75.50;;;13.39;53.54;95528.00;10380581;28;2069;-83
2021/05/08 18:44:55;;;;;;;;;;;14.60;76.20;;;13.31;53.32;95534.06;10380648;28;2227;-85
2021/05/08 18:49:57;;;;;;;;;;;14.50;77.30;;;13.19;54.06;95539.09;10382581;28;2295;-84
2021/05/08 18:54:59;;;;;;;;;;;14.30;78.20;;;13.04;55.59;95542.03;10383527;28;2613;-85
2021/05/08 19:00:01;;;;;;;;;;;14.20;79.00;;;12.91;56.08;95536.28;10375608;28;2205;-83
2021/05/08 19:05:03;;;;;;;;;;;14.10;79.90;;;12.78;55.57;95526.25;10370279;28;2096;-85
2021/05/08 19:10:05;;;;;;;;;;;13.90;80.10;;;12.62;55.91;95538.38;10356062;28;2339;-86
2021/05/08 19:15:06;;;;;;;;;;;13.80;80.20;;;12.54;56.31;95547.94;10378294;28;2128;-84
2021/05/08 19:20:08;;;;;;;;;;;13.70;80.90;;;12.47;56.26;95552.88;10372567;28;2073;-83
2021/05/08 19:25:10;;;;;;;;;;;13.60;81.10;;;12.25;56.50;95533.75;10362590;28;2226;-85
2021/05/08 19:30:12;;;;;;;;;;;13.50;81.30;;;12.14;57.35;95541.16;10378491;28;2198;-84
2021/05/08 19:35:14;;;;;;;;;;;13.40;82.10;;;12.09;57.11;95536.66;10383918;28;1983;-85
2021/05/08 19:40:15;;;;;;;;;;;13.20;82.30;;;12.00;57.44;95543.75;10373681;28;2187;-83
2021/05/08 19:45:17;;;;;;;;;;;13.20;82.50;;;11.98;57.38;95539.75;10370076;28;2138;-85
2021/05/08 19:50:19;;;;;;;;;;;13.10;82.80;;;11.86;57.80;95543.66;10388200;28;1935;-84
2021/05/08 19:55:21;;;;;;;;;;;13.00;83.20;;;11.84;57.22;95540.47;10393519;28;1939;-83
2021/05/08 20:00:23;;;;;;;;;;;12.90;83.00;;;11.75;57.17;95536.75;10363367;28;2276;-81
2021/05/08 20:05:25;;;;;;;;;;;12.90;83.00;;;11.69;57.87;95537.88;10372334;28;2019;-85
2021/05/08 20:10:27;;;;;;;;;;;12.80;83.10;;;11.58;57.98;95539.09;10376757;28;2379;-84
2021/05/08 20:15:29;;;;;;;;;;;12.70;83.90;;;11.43;58.81;95531.16;10399961;28;1893;-84
2021/05/08 20:20:31;;;;;;;;;;;12.60;84.40;;;11.29;60.19;95539.91;10376118;28;2248;-83
2021/05/08 20:25:32;;;;;;;;;;;12.50;85.40;;;11.13;59.38;95538.44;10372796;28;2221;-84
2021/05/08 20:30:34;;;;;;;;;;;12.30;85.60;;;11.04;60.21;95538.25;10360677;28;2248;-86
2021/05/08 20:35:36;;;;;;;;;;;12.30;86.40;;;11.04;60.39;95540.13;10396034;28;1903;-83
2021/05/08 20:40:39;;;;;;;;;;;12.20;86.90;;;11.05;60.22;95549.81;10373304;28;1957;-83
2021/05/08 20:45:43;;;;;;;;;;;12.10;87.40;;;10.95;60.76;95550.72;10390195;28;1783;-84
2021/05/08 20:50:46;;;;;;;;;;;12.10;87.70;;;10.90;60.98;95549.94;10361518;28;2044;-84
2021/05/08 20:55:48;;;;;;;;;;;12.00;87.70;;;10.76;61.24;95542.50;10382496;28;2006;-85
2021/05/08 21:00:50;;;;;;;;;;;12.00;88.40;;;10.68;60.96;95545.78;10375143;28;2097;-84
2021/05/08 21:05:53;;;;;;;;;;;11.90;88.30;;;10.68;61.68;95544.97;10367907;28;2084;-83
2021/05/08 21:10:55;;;;;;;;;;;11.80;89.10;;;10.58;61.53;95547.75;10389552;28;1986;-84
2021/05/08 21:15:56;;;;;;;;;;;11.70;89.00;;;10.64;61.37;95542.06;10357214;28;2068;-83
2021/05/08 21:21:01;;;;;;;;;;;11.80;89.30;;;10.65;60.70;95543.66;10380727;28;2033;-84
2021/05/08 21:26:03;;;;;;;;;;;11.70;89.20;;;10.59;60.97;95543.97;10372544;28;1585;-84
2021/05/08 21:31:05;;;;;;;;;;;11.70;89.10;;;10.57;60.95;95541.56;10380049;28;2030;-85
2021/05/08 21:36:07;;;;;;;;;;;11.70;89.00;;;10.62;60.09;95541.50;10366156;28;2034;-84
2021/05/08 21:41:09;;;;;;;;;;;11.70;89.10;;;10.55;60.84;95547.19;10354445;28;2084;-84
2021/05/08 21:46:11;;;;;;;;;;;11.70;89.50;;;10.53;60.67;95553.94;10401480;28;2069;-84
2021/05/08 21:51:13;;;;;;;;;;;11.60;89.30;;;10.55;59.65;95549.09;10374641;28;1873;-82
2021/05/08 21:56:15;;;;;;;;;;;11.60;89.00;;;10.44;60.25;95547.56;10367066;28;2065;-81
2021/05/08 22:01:17;;;;;;;;;;;11.50;89.20;;;10.45;60.16;95544.59;10380876;28;2116;-84
2021/05/08 22:06:18;;;;;;;;;;;11.50;89.50;;;10.35;60.58;95546.53;10388110;28;2098;-84
2021/05/08 22:11:20;;;;;;;;;;;11.50;89.80;;;10.40;60.01;95543.81;10360312;28;2089;-82
2021/05/08 22:16:42;;;;;;;;;;;11.40;89.30;;;10.43;59.81;95540.56;10374402;28;2128;-84
2021/05/08 22:21:44;;;;;;;;;;;11.40;89.50;;;10.35;59.83;95533.88;10372232;28;2176;-83
2021/05/08 22:26:46;;;;;;;;;;;11.40;89.20;;;10.19;60.20;95538.53;10381405;28;2169;-83
2021/05/08 22:31:49;;;;;;;;;;;11.30;89.50;;;10.21;60.38;95540.94;10371717;28;2144;-84
2021/05/08 22:36:52;;;;;;;;;;;11.30;90.00;;;10.05;61.40;95532.13;10386683;28;2215;-84
2021/05/08 22:41:54;;;;;;;;;;;11.20;90.50;;;10.03;61.12;95529.72;10369386;28;2083;-84
2021/05/08 22:46:56;;;;;;;;;;;11.10;90.70;;;9.97;61.61;95528.13;10363961;28;2095;-82
2021/05/08 22:51:58;;;;;;;;;;;11.10;91.30;;;10.10;61.62;95531.31;10362489;28;2038;-84
2021/05/08 22:57:00;;;;;;;;;;;11.10;91.50;;;10.03;61.85;95523.56;10351504;28;2071;-85
2021/05/08 23:02:02;;;;;;;;;;;11.10;91.60;;;9.86;62.38;95526.59;10368328;28;1933;-83
2021/05/08 23:07:03;;;;;;;;;;;11.00;92.00;;;9.79;62.42;95517.22;10369217;28;2052;-84
2021/05/08 23:12:05;;;;;;;;;;;10.90;92.50;;;9.80;62.79;95532.22;10427204;28;2033;-82
2021/05/08 23:17:07;;;;;;;;;;;10.90;93.10;;;9.94;62.39;95499.16;10370745;28;2256;-83
2021/05/08 23:22:09;;;;;;;;;;;10.90;93.50;;;9.94;62.24;95514.47;10371906;28;2093;-83
2021/05/08 23:27:11;;;;;;;;;;;11.00;93.20;;;9.86;62.34;95509.66;10367899;28;2148;-83
2021/05/08 23:32:13;;;;;;;;;;;10.90;93.10;;;9.59;63.00;95518.88;10358817;28;2175;-82
2021/05/08 23:37:15;;;;;;;;;;;10.80;93.30;;;9.64;63.22;95510.81;10362619;28;2183;-83